Time;durP1;ratioP1;P1;durP2;ratioP2;P2;SDS_P1;SDS_P2;PMS_P1;PMS_P2;Temp;Humidity;BMP_temperature;BMP_pressure;BME280_temperature;BME280_humidity;BME280_pressure;Samples;Min_cycle;Max_cycle;Signal;HPM_P1;HPM_P2
2022/02/05 00:02:45;;;;;;;15.02;3.45;;;4.10;99.90;;;;;;4971845;28;19970;-87
2022/02/05 00:05:13;;;;;;;20.63;3.95;;;4.10;99.90;;;;;;4954821;28;20042;-79
2022/02/05 00:07:46;;;;;;;15.10;3.33;;;4.10;99.90;;;;;;4963058;28;20099;-79
2022/02/05 00:10:30;;;;;;;15.18;3.58;;;4.10;99.90;;;;;;4944440;28;20023;-79
2022/02/05 00:13:22;;;;;;;20.10;3.55;;;4.10;99.90;;;;;;4977752;28;20143;-79
2022/02/05 00:45:12;;;;;;;14.13;3.00;;;4.10;99.90;;;;;;4953516;28;20048;-80
2022/02/05 00:47:42;;;;;;;14.23;2.92;;;4.10;99.90;;;;;;4982678;28;20030;-80
2022/02/05 00:50:13;;;;;;;17.98;3.33;;;4.00;99.90;;;;;;4978393;28;20023;-80
2022/02/05 00:52:40;;;;;;;20.23;3.33;;;4.00;99.90;;;;;;4980497;28;20042;-80
2022/02/05 00:55:10;;;;;;;13.52;3.20;;;4.00;99.90;;;;;;4970983;28;20043;-80
2022/02/05 00:57:45;;;;;;;11.60;2.92;;;4.00;99.90;;;;;;4981682;28;20031;-80
2022/02/05 01:00:20;;;;;;;14.98;2.95;;;4.10;99.90;;;;;;4973532;28;20026;-79
2022/02/05 01:02:47;;;;;;;15.77;3.15;;;4.10;99.90;;;;;;4963841;28;20027;-79
2022/02/05 01:05:12;;;;;;;17.30;2.97;;;4.20;99.90;;;;;;4963807;28;20035;-79
2022/02/05 01:07:39;;;;;;;16.40;3.08;;;4.20;99.90;;;;;;4978984;28;20045;-79
2022/02/05 01:10:05;;;;;;;21.80;3.88;;;4.10;99.90;;;;;;4978957;28;20047;-78
2022/02/05 01:12:33;;;;;;;13.68;3.55;;;4.20;99.90;;;;;;4959881;28;20142;-79
2022/02/05 01:15:01;;;;;;;17.60;3.15;;;4.20;99.90;;;;;;4979248;28;20033;-79
2022/02/05 01:17:34;;;;;;;13.23;3.20;;;4.30;99.90;;;;;;4965014;28;20054;-79
2022/02/05 01:22:34;;;;;;;10.40;2.50;;;4.40;99.90;;;;;;4978440;28;20034;-78
2022/02/05 01:25:00;;;;;;;13.82;3.75;;;4.40;99.90;;;;;;4963361;28;20067;-78
2022/02/05 01:30:33;;;;;;;15.95;2.85;;;4.50;99.90;;;;;;4963428;28;20070;-78
2022/02/05 01:33:09;;;;;;;16.77;3.53;;;4.50;99.90;;;;;;4976376;28;20050;-79
2022/02/05 01:52:03;;;;;;;13.13;2.70;;;4.70;99.90;;;;;;4949418;28;20066;-79
2022/02/05 01:54:40;;;;;;;13.98;2.90;;;4.70;99.90;;;;;;4962815;28;20047;-79
2022/02/05 01:57:17;;;;;;;17.17;3.10;;;4.70;99.90;;;;;;4979593;28;21534;-79
2022/02/05 02:05:12;;;;;;;14.52;3.25;;;4.70;99.90;;;;;;4977605;28;20093;-79
2022/02/05 02:15:48;;;;;;;16.60;3.50;;;4.60;99.90;;;;;;4967002;28;20305;-79
2022/02/05 02:18:28;;;;;;;11.60;2.70;;;4.50;99.90;;;;;;4951484;28;20113;-79
2022/02/05 02:21:37;;;;;;;16.10;3.17;;;4.60;99.90;;;;;;4964058;28;20035;-79
2022/02/05 02:26:52;;;;;;;16.25;2.75;;;4.60;99.90;;;;;;4976754;28;20057;-79
2022/02/05 02:29:51;;;;;;;16.65;3.33;;;4.60;99.90;;;;;;4978215;28;20042;-78
2022/02/05 02:32:07;;;;;;;14.38;3.00;;;4.60;99.90;;;;;;4964661;28;20062;-79
2022/02/05 02:34:39;;;;;;;12.00;2.70;;;4.60;99.90;;;;;;4978463;28;20038;-78
2022/02/05 02:37:11;;;;;;;17.45;2.95;;;4.50;99.90;;;;;;4960843;28;20030;-78
2022/02/05 02:39:54;;;;;;;17.73;3.05;;;4.50;99.90;;;;;;4963917;28;20043;-79
2022/02/05 02:42:21;;;;;;;17.92;3.03;;;4.50;99.90;;;;;;4965592;28;20034;-78
2022/02/05 02:44:46;;;;;;;15.43;3.75;;;4.40;99.90;;;;;;4977483;28;20043;-78
2022/02/05 02:47:13;;;;;;;13.10;3.58;;;4.40;99.90;;;;;;4970236;28;20038;-78
2022/02/05 02:50:00;;;;;;;21.42;3.55;;;4.30;99.90;;;;;;4949163;28;20070;-79
2022/02/05 02:58:01;;;;;;;15.43;3.17;;;4.20;99.90;;;;;;4978598;28;20119;-79
2022/02/05 03:00:27;;;;;;;24.95;3.92;;;4.20;99.90;;;;;;4962585;28;20042;-79
2022/02/05 03:02:54;;;;;;;14.50;3.13;;;4.20;99.90;;;;;;4966902;28;20031;-78
2022/02/05 03:05:19;;;;;;;17.50;3.15;;;4.20;99.90;;;;;;4978217;28;20034;-83
2022/02/05 03:07:45;;;;;;;17.45;3.92;;;4.10;99.90;;;;;;4959620;28;20027;-80
2022/02/05 03:10:11;;;;;;;18.50;3.70;;;4.10;99.90;;;;;;4978699;28;20023;-78
2022/02/05 03:12:37;;;;;;;17.92;2.92;;;4.10;99.90;;;;;;4956670;28;20415;-79
2022/02/05 03:15:05;;;;;;;20.92;3.42;;;4.10;99.90;;;;;;4973665;28;20074;-78
2022/02/05 03:17:41;;;;;;;14.15;3.15;;;4.20;99.90;;;;;;4958092;28;20027;-78
2022/02/05 03:20:07;;;;;;;18.25;3.90;;;4.20;99.90;;;;;;4974854;28;20406;-78
2022/02/05 03:22:33;;;;;;;18.27;3.08;;;4.20;99.90;;;;;;4976674;28;20742;-78
2022/02/05 03:25:00;;;;;;;20.10;3.47;;;4.20;99.90;;;;;;4976884;28;20079;-78
2022/02/05 03:27:26;;;;;;;26.95;3.90;;;4.10;99.90;;;;;;4961061;28;20028;-78
2022/02/05 03:29:52;;;;;;;18.42;3.28;;;4.00;99.90;;;;;;4974468;28;20035;-78
2022/02/05 03:32:21;;;;;;;15.43;3.45;;;4.00;99.90;;;;;;4958704;28;20038;-78
2022/02/05 03:34:47;;;;;;;16.08;4.40;;;4.00;99.90;;;;;;4973098;28;20031;-78
2022/02/05 03:37:13;;;;;;;23.00;3.88;;;4.10;99.90;;;;;;4977278;28;21548;-78
2022/02/05 03:39:39;;;;;;;16.23;3.50;;;4.00;99.90;;;;;;4963091;28;20483;-78
2022/02/05 03:42:05;;;;;;;20.50;3.70;;;4.00;99.90;;;;;;4976208;28;20110;-78
2022/02/05 03:44:32;;;;;;;20.33;3.22;;;4.00;99.90;;;;;;4962721;28;20037;-78
2022/02/05 03:46:58;;;;;;;17.80;3.75;;;3.80;99.90;;;;;;4976254;28;20023;-78
2022/02/05 03:49:24;;;;;;;19.52;3.47;;;3.90;99.90;;;;;;4977426;28;20073;-78
2022/02/05 03:51:51;;;;;;;26.50;3.45;;;3.80;99.90;;;;;;4976205;28;20027;-78
2022/02/05 03:54:19;;;;;;;17.70;3.55;;;3.90;99.90;;;;;;4980219;28;20057;-78
2022/02/05 03:56:45;;;;;;;14.82;3.65;;;3.80;99.90;;;;;;4978978;28;20481;-79
2022/02/05 03:59:11;;;;;;;18.30;3.75;;;3.80;99.90;;;;;;4946349;28;20043;-78
2022/02/05 04:01:37;;;;;;;16.10;3.60;;;3.80;99.90;;;;;;4957758;28;20041;-79
2022/02/05 04:04:03;;;;;;;18.20;3.58;;;3.90;99.90;;;;;;4979516;28;20023;-79
2022/02/05 04:06:28;;;;;;;22.02;3.65;;;3.90;99.90;;;;;;4962651;28;20028;-79
2022/02/05 04:08:57;;;;;;;17.65;3.50;;;3.90;99.90;;;;;;4964660;28;20050;-78
2022/02/05 04:16:40;;;;;;;16.25;3.50;;;3.90;99.90;;;;;;4982066;28;20042;-78
2022/02/05 04:19:05;;;;;;;16.00;3.78;;;3.90;99.90;;;;;;4982154;28;20030;-78
2022/02/05 04:21:33;;;;;;;22.90;3.75;;;3.90;99.90;;;;;;4977476;28;20034;-78
2022/02/05 04:24:02;;;;;;;18.35;3.50;;;3.90;99.90;;;;;;4981760;28;20031;-78
2022/02/05 04:26:29;;;;;;;18.23;4.10;;;3.90;99.90;;;;;;4982238;28;20376;-78
2022/02/05 04:28:55;;;;;;;17.45;3.67;;;3.90;99.90;;;;;;4977781;28;20110;-79
2022/02/05 04:31:21;;;;;;;17.20;4.35;;;3.90;99.90;;;;;;4963778;28;20039;-78
2022/02/05 04:33:47;;;;;;;22.92;3.63;;;3.90;99.90;;;;;;4980388;28;20069;-79
2022/02/05 04:36:14;;;;;;;20.58;3.53;;;3.90;99.90;;;;;;4966137;28;20047;-78
2022/02/05 04:38:42;;;;;;;17.35;3.88;;;3.90;99.90;;;;;;4975916;28;20495;-78
2022/02/05 04:41:27;;;;;;;24.73;4.13;;;4.00;99.90;;;;;;4963051;28;20033;-78
2022/02/05 05:04:51;;;;;;;18.38;3.30;;;4.10;99.90;;;;;;4975836;28;20042;-78
2022/02/05 05:12:53;;;;;;;14.45;3.13;;;3.80;99.90;;;;;;4978550;28;20053;-78
2022/02/05 05:20:39;;;;;;;16.75;3.40;;;3.50;99.90;;;;;;4979252;28;20049;-78
2022/02/05 05:23:05;;;;;;;20.10;3.67;;;3.50;99.90;;;;;;4944431;28;22662;-79
2022/02/05 05:25:31;;;;;;;17.23;3.60;;;3.50;99.90;;;;;;4961346;28;20062;-78
2022/02/05 05:28:01;;;;;;;20.08;3.55;;;3.40;99.90;;;;;;4965863;28;20039;-77
2022/02/05 05:30:27;;;;;;;19.85;3.33;;;3.40;99.90;;;;;;4958357;28;20042;-77
2022/02/05 05:32:52;;;;;;;29.35;4.28;;;3.50;99.90;;;;;;4979988;28;20069;-78
2022/02/05 05:35:18;;;;;;;19.60;4.40;;;3.50;99.90;;;;;;4961994;28;20089;-78
2022/02/05 05:37:51;;;;;;;18.17;3.40;;;3.50;99.90;;;;;;4979829;28;20053;-78
2022/02/05 05:40:18;;;;;;;23.98;3.70;;;3.50;99.90;;;;;;4958951;28;20376;-78
2022/02/05 05:42:49;;;;;;;18.20;3.20;;;3.50;99.90;;;;;;4977043;28;20033;-78
2022/02/05 05:47:58;;;;;;;27.00;3.85;;;3.40;99.90;;;;;;4962820;28;20065;-78
2022/02/05 05:53:10;;;;;;;19.27;3.93;;;3.30;99.90;;;;;;4979773;28;20062;-78
2022/02/05 05:55:38;;;;;;;16.92;3.42;;;3.40;99.90;;;;;;4977143;28;20493;-78
2022/02/05 05:58:04;;;;;;;16.10;3.30;;;3.40;99.90;;;;;;4946343;28;20038;-78
2022/02/05 06:00:30;;;;;;;16.75;2.95;;;3.40;99.90;;;;;;4969089;28;20032;-78
2022/02/05 06:02:55;;;;;;;23.42;3.15;;;3.50;99.90;;;;;;4978891;28;20027;-78
2022/02/05 06:05:21;;;;;;;16.08;2.83;;;3.50;99.90;;;;;;4961256;28;20023;-78
2022/02/05 06:07:47;;;;;;;22.92;3.80;;;3.50;99.90;;;;;;4974916;28;20102;-77
2022/02/05 06:10:12;;;;;;;23.88;3.70;;;3.40;99.90;;;;;;4975021;28;20169;-78
2022/02/05 06:12:38;;;;;;;17.27;3.38;;;3.40;99.90;;;;;;4979890;28;20055;-78
2022/02/05 06:15:07;;;;;;;16.23;2.90;;;3.40;99.90;;;;;;4958853;28;20041;-78
2022/02/05 06:17:33;;;;;;;20.50;3.90;;;3.30;99.90;;;;;;4968411;28;20046;-78
2022/02/05 06:19:59;;;;;;;20.50;3.17;;;3.20;99.90;;;;;;4976842;28;20030;-78
2022/02/05 06:22:25;;;;;;;15.75;3.53;;;3.20;99.90;;;;;;4964080;28;20411;-78
2022/02/05 06:24:50;;;;;;;17.58;3.88;;;3.30;99.90;;;;;;4960386;28;20031;-78
2022/02/05 06:27:16;;;;;;;13.50;3.08;;;3.30;99.90;;;;;;4960102;28;20042;-78
2022/02/05 06:29:42;;;;;;;13.82;2.92;;;3.30;99.90;;;;;;4958041;28;20070;-78
2022/02/05 06:32:08;;;;;;;15.27;3.13;;;3.40;99.90;;;;;;4980049;28;20027;-79
2022/02/05 06:34:34;;;;;;;13.27;3.13;;;3.30;99.90;;;;;;4962866;28;20046;-78
2022/02/05 06:37:00;;;;;;;16.30;3.15;;;3.30;99.90;;;;;;4978468;28;20053;-78
2022/02/05 06:39:28;;;;;;;15.63;2.78;;;3.20;99.90;;;;;;4963208;28;20060;-78
2022/02/05 06:41:54;;;;;;;15.73;3.28;;;3.20;99.90;;;;;;4976190;28;20030;-78
2022/02/05 06:44:20;;;;;;;17.95;3.55;;;3.30;99.90;;;;;;4977771;28;20051;-79
2022/02/05 06:46:45;;;;;;;23.50;3.38;;;3.30;99.90;;;;;;4978007;28;20038;-81
2022/02/05 06:49:11;;;;;;;21.33;3.60;;;3.30;99.90;;;;;;4959464;28;20494;-80
2022/02/05 06:51:37;;;;;;;16.50;3.50;;;3.40;99.90;;;;;;4962814;28;20031;-82
2022/02/05 06:54:03;;;;;;;19.05;3.60;;;3.40;99.90;;;;;;4962290;28;20043;-81
2022/02/05 06:56:28;;;;;;;19.05;2.90;;;3.40;99.90;;;;;;4963929;28;20471;-82
2022/02/05 06:58:54;;;;;;;17.92;3.53;;;3.30;99.90;;;;;;4961307;28;20038;-81
2022/02/05 07:01:20;;;;;;;16.13;3.15;;;3.20;99.90;;;;;;4958008;28;20033;-84
2022/02/05 07:03:46;;;;;;;17.63;3.75;;;3.20;99.90;;;;;;4956955;28;20043;-83
2022/02/05 07:06:11;;;;;;;15.18;2.97;;;3.20;99.90;;;;;;4976102;28;20027;-79
2022/02/05 07:08:40;;;;;;;21.80;4.47;;;3.20;99.90;;;;;;4969697;28;20047;-78
2022/02/05 07:11:06;;;;;;;19.95;4.03;;;3.20;99.90;;;;;;4976067;28;20107;-78
2022/02/05 07:13:31;;;;;;;17.95;3.25;;;3.20;99.90;;;;;;4977647;28;20039;-78
2022/02/05 07:16:15;;;;;;;17.25;3.35;;;3.20;99.90;;;;;;4960805;28;20031;-78
2022/02/05 07:21:50;;;;;;;16.45;3.05;;;3.10;99.90;;;;;;4956953;28;20032;-78
2022/02/05 07:29:41;;;;;;;15.98;3.20;;;3.00;99.90;;;;;;4958370;28;20073;-78
2022/02/05 07:32:07;;;;;;;13.57;3.28;;;2.90;99.90;;;;;;4971922;28;20024;-78
2022/02/05 07:34:35;;;;;;;24.20;4.07;;;2.90;99.90;;;;;;4965061;28;20027;-78
2022/02/05 07:37:02;;;;;;;13.00;3.10;;;2.90;99.90;;;;;;4975225;28;20512;-78
2022/02/05 07:39:30;;;;;;;21.38;3.08;;;2.80;99.90;;;;;;4973184;28;20235;-78
2022/02/05 07:41:55;;;;;;;14.88;2.90;;;2.80;99.90;;;;;;4974443;28;20390;-80
2022/02/05 07:44:21;;;;;;;24.25;3.05;;;2.80;99.90;;;;;;4965053;28;20031;-78
2022/02/05 07:46:50;;;;;;;17.90;3.55;;;2.80;99.90;;;;;;4958094;28;20122;-77
2022/02/05 07:49:18;;;;;;;20.00;3.63;;;2.90;99.90;;;;;;4964419;28;20046;-78
2022/02/05 07:51:45;;;;;;;17.70;3.25;;;2.90;99.90;;;;;;4965480;28;20027;-77
2022/02/05 07:54:11;;;;;;;20.60;3.40;;;2.90;99.90;;;;;;4981317;28;20113;-78
2022/02/05 07:56:41;;;;;;;19.05;3.55;;;2.90;99.90;;;;;;4963791;28;20491;-77
2022/02/05 07:59:06;;;;;;;13.98;2.70;;;2.90;99.90;;;;;;4981276;28;20047;-78
2022/02/05 08:01:32;;;;;;;16.95;3.65;;;3.00;99.90;;;;;;4979917;28;20023;-77
2022/02/05 08:03:59;;;;;;;18.83;2.92;;;3.00;99.90;;;;;;4963531;28;20049;-77
2022/02/05 08:06:25;;;;;;;13.80;3.15;;;3.00;99.90;;;;;;4981189;28;20031;-77
2022/02/05 08:08:54;;;;;;;23.05;3.88;;;3.00;99.90;;;;;;4981350;28;20019;-77
2022/02/05 08:11:22;;;;;;;20.27;4.15;;;3.00;99.90;;;;;;4963985;28;20047;-77
2022/02/05 08:13:50;;;;;;;19.23;3.20;;;3.10;99.90;;;;;;4964100;28;20039;-77
2022/02/05 08:18:47;;;;;;;14.05;3.53;;;3.20;99.90;;;;;;4980883;28;20031;-77
2022/02/05 08:21:13;;;;;;;14.15;3.50;;;3.30;99.90;;;;;;4947072;28;20030;-77
2022/02/05 08:23:39;;;;;;;17.83;3.75;;;3.30;99.90;;;;;;4981290;28;20023;-77
2022/02/05 08:26:05;;;;;;;24.48;3.55;;;3.30;99.90;;;;;;4980863;28;20428;-77
2022/02/05 08:28:31;;;;;;;18.77;3.47;;;3.40;99.90;;;;;;4981061;28;20046;-77
2022/02/05 08:30:58;;;;;;;19.30;4.03;;;3.40;99.90;;;;;;4963683;28;20073;-77
2022/02/05 08:33:23;;;;;;;14.45;3.38;;;3.60;99.90;;;;;;4974694;28;20047;-78
2022/02/05 08:35:50;;;;;;;18.05;4.13;;;3.70;99.90;;;;;;4961824;29;20038;-77
2022/02/05 08:38:17;;;;;;;16.60;3.35;;;3.80;99.90;;;;;;4980308;28;20491;-77
2022/02/05 08:40:43;;;;;;;19.27;3.53;;;3.90;99.90;;;;;;4983471;28;20074;-77
2022/02/05 08:43:08;;;;;;;22.52;3.33;;;4.00;99.90;;;;;;4981043;28;20352;-77
2022/02/05 08:45:37;;;;;;;19.40;4.25;;;4.00;99.90;;;;;;4961101;28;20031;-77
2022/02/05 08:48:03;;;;;;;19.38;3.30;;;4.00;99.90;;;;;;4974521;28;20059;-77
2022/02/05 08:50:29;;;;;;;18.55;3.63;;;4.10;99.90;;;;;;4957430;28;20031;-78
2022/02/05 08:52:55;;;;;;;13.40;3.78;;;4.10;99.90;;;;;;4963726;28;20070;-78
2022/02/05 08:55:21;;;;;;;18.60;3.42;;;4.10;99.90;;;;;;4966500;28;20037;-77
2022/02/05 08:57:48;;;;;;;22.25;3.75;;;4.20;99.90;;;;;;4962501;28;20089;-77
2022/02/05 09:00:21;;;;;;;18.98;3.78;;;4.30;99.90;;;;;;4975963;28;20074;-77
2022/02/05 09:07:42;;;;;;;21.70;3.90;;;4.50;99.90;;;;;;4982751;28;20050;-77
2022/02/05 09:15:07;;;;;;;19.48;4.03;;;5.00;99.90;;;;;;4976175;28;20051;-77
2022/02/05 09:17:34;;;;;;;20.38;3.63;;;5.00;99.90;;;;;;4982109;28;20038;-77
2022/02/05 09:20:00;;;;;;;19.00;3.80;;;5.10;99.90;;;;;;4977775;28;20031;-77
2022/02/05 09:22:29;;;;;;;17.95;3.90;;;5.10;99.90;;;;;;4965639;28;20059;-77
2022/02/05 09:24:57;;;;;;;19.08;4.07;;;5.20;99.90;;;;;;4978364;28;20061;-77
2022/02/05 09:27:23;;;;;;;15.30;4.35;;;5.30;99.90;;;;;;4963318;28;20082;-77
2022/02/05 09:30:07;;;;;;;15.63;4.00;;;5.40;99.90;;;;;;4980202;28;20034;-77
2022/02/05 09:32:32;;;;;;;21.55;3.85;;;5.40;99.90;;;;;;4966531;28;20033;-77
2022/02/05 09:34:58;;;;;;;18.67;4.00;;;5.50;99.90;;;;;;4965888;28;20054;-77
2022/02/05 09:37:24;;;;;;;21.90;3.97;;;5.50;99.90;;;;;;4965612;28;20367;-78
2022/02/05 09:39:51;;;;;;;19.70;4.13;;;5.50;99.90;;;;;;4976109;28;20124;-77
2022/02/05 09:42:16;;;;;;;19.15;3.95;;;5.60;99.90;;;;;;4946321;28;20038;-77
2022/02/05 09:44:43;;;;;;;18.63;3.50;;;5.60;99.90;;;;;;4964685;28;20023;-77
2022/02/05 09:47:08;;;;;;;20.92;4.43;;;5.80;99.90;;;;;;4983008;28;20042;-77
2022/02/05 09:49:35;;;;;;;15.55;3.10;;;5.80;99.90;;;;;;4977959;28;20368;-77
2022/02/05 09:52:09;;;;;;;21.02;4.90;;;5.90;99.90;;;;;;4982284;28;20038;-77
2022/02/05 09:54:37;;;;;;;20.27;4.65;;;6.00;99.90;;;;;;4966571;28;20069;-77
2022/02/05 09:57:03;;;;;;;25.00;4.47;;;5.90;99.90;;;;;;4977676;28;20486;-77
2022/02/05 09:59:40;;;;;;;23.20;4.80;;;6.00;99.90;;;;;;4981152;28;20041;-77
2022/02/05 10:02:23;;;;;;;19.95;4.28;;;6.10;99.90;;;;;;4975851;28;20467;-77
2022/02/05 10:05:09;;;;;;;15.85;4.32;;;6.20;99.90;;;;;;4972150;28;20098;-77
2022/02/05 10:07:51;;;;;;;18.95;4.38;;;6.30;99.90;;;;;;4981936;28;20407;-77
2022/02/05 10:10:16;;;;;;;17.02;3.35;;;6.40;99.90;;;;;;4964071;28;20027;-76
2022/02/05 10:12:42;;;;;;;19.88;4.15;;;6.40;99.90;;;;;;4977839;28;20033;-77
2022/02/05 10:15:10;;;;;;;18.00;3.72;;;6.50;99.90;;;;;;4982184;28;20042;-77
2022/02/05 10:17:44;;;;;;;20.63;4.25;;;6.50;99.90;;;;;;4948923;28;20030;-77
2022/02/05 10:20:13;;;;;;;13.30;3.55;;;6.50;99.90;;;;;;4981825;28;20126;-77
2022/02/05 10:22:44;;;;;;;22.35;4.65;;;6.40;99.90;;;;;;4977744;28;20019;-77
2022/02/05 10:25:16;;;;;;;15.45;3.60;;;6.40;99.90;;;;;;4979209;28;20031;-76
2022/02/05 10:27:44;;;;;;;22.63;4.72;;;6.30;99.90;;;;;;4963072;28;20015;-76
2022/02/05 10:30:11;;;;;;;17.25;4.55;;;6.40;99.90;;;;;;4974360;28;20097;-77
2022/02/05 10:32:49;;;;;;;21.77;4.22;;;6.40;99.90;;;;;;4976596;28;20023;-76
2022/02/05 10:40:45;;;;;;;19.00;3.92;;;6.40;99.90;;;;;;4980736;28;20045;-76
2022/02/05 10:43:14;;;;;;;16.92;4.22;;;6.40;99.90;;;;;;4963122;28;20042;-76
2022/02/05 10:45:44;;;;;;;20.73;4.07;;;6.30;99.90;;;;;;4978994;28;20390;-77
2022/02/05 10:48:12;;;;;;;17.88;3.88;;;6.30;99.90;;;;;;4977686;28;20058;-76
2022/02/05 10:50:38;;;;;;;16.52;4.10;;;6.30;99.90;;;;;;4981058;28;20040;-76
2022/02/05 10:53:21;;;;;;;19.27;4.05;;;6.30;99.90;;;;;;4979648;28;20074;-76
2022/02/05 10:58:43;;;;;;;17.33;4.00;;;6.20;99.90;;;;;;4973169;28;20151;-77
2022/02/05 11:07:05;;;;;;;13.35;3.17;;;6.40;99.90;;;;;;4975901;28;20099;-77
2022/02/05 11:09:31;;;;;;;18.10;3.38;;;6.50;99.90;;;;;;4968551;28;20034;-76
2022/02/05 11:20:18;;;;;;;19.60;3.50;;;6.90;99.90;;;;;;4974590;28;20226;-76
2022/02/05 11:22:48;;;;;;;16.67;3.63;;;7.00;99.90;;;;;;4972529;28;20027;-77
2022/02/05 11:25:15;;;;;;;13.40;3.10;;;7.10;99.90;;;;;;4950447;28;20340;-77
2022/02/05 11:27:52;;;;;;;16.20;3.47;;;7.10;99.90;;;;;;4958291;28;20083;-78
2022/02/05 11:30:31;;;;;;;17.77;3.72;;;7.00;99.90;;;;;;4968233;28;20138;-78
2022/02/05 11:33:01;;;;;;;13.60;4.00;;;7.00;99.90;;;;;;4971178;28;20042;-76
2022/02/05 11:35:42;;;;;;;15.75;3.65;;;7.00;99.90;;;;;;4969906;28;20037;-76
2022/02/05 11:38:08;;;;;;;13.73;3.00;;;7.10;99.90;;;;;;4959091;28;20518;-76
2022/02/05 11:40:51;;;;;;;19.15;3.80;;;7.00;99.90;;;;;;4979183;28;20054;-76
2022/02/05 11:43:18;;;;;;;18.02;3.92;;;7.00;99.90;;;;;;4980814;28;20057;-76
2022/02/05 11:45:44;;;;;;;20.48;3.90;;;6.90;99.90;;;;;;4959129;28;20034;-75
2022/02/05 11:48:53;;;;;;;16.95;4.50;;;6.90;99.90;;;;;;4972853;28;20039;-76
2022/02/05 11:51:26;;;;;;;15.68;4.18;;;6.90;99.90;;;;;;4951365;29;20108;-76
2022/02/05 11:53:55;;;;;;;17.95;3.50;;;6.80;99.90;;;;;;4969196;28;20039;-76
2022/02/05 11:56:22;;;;;;;15.60;3.85;;;6.80;99.90;;;;;;4964161;28;20035;-75
2022/02/05 11:58:57;;;;;;;19.77;3.70;;;6.90;99.90;;;;;;4971567;28;20078;-75
2022/02/05 12:01:37;;;;;;;12.88;3.28;;;7.00;99.90;;;;;;4980283;28;20406;-76
2022/02/05 12:04:29;;;;;;;12.73;3.03;;;7.10;99.90;;;;;;4977258;28;20038;-76
2022/02/05 12:07:04;;;;;;;16.15;3.20;;;7.20;99.90;;;;;;4962200;28;20030;-76
2022/02/05 12:09:37;;;;;;;14.95;3.20;;;7.30;99.90;;;;;;4967335;28;20067;-76
2022/02/05 12:12:22;;;;;;;15.75;3.30;;;7.10;99.90;;;;;;4980764;28;20047;-76
2022/02/05 12:15:16;;;;;;;16.23;3.42;;;7.20;99.90;;;;;;4971417;28;20117;-76
2022/02/05 12:25:58;;;;;;;12.55;3.00;;;7.70;99.90;;;;;;4965747;29;20065;-76
2022/02/05 12:28:29;;;;;;;;;;;8.00;99.90;;;;;;4974807;28;20082;-75
2022/02/05 12:31:02;;;;;;;17.88;3.50;;;8.10;99.90;;;;;;4979955;28;19990;-75
2022/02/05 12:34:01;;;;;;;11.88;2.78;;;8.10;99.90;;;;;;4967654;28;20053;-76
2022/02/05 12:36:37;;;;;;;15.55;3.22;;;8.10;99.90;;;;;;4966213;28;20567;-76
2022/02/05 12:39:11;;;;;;;16.95;3.78;;;8.90;99.90;;;;;;4979556;28;20059;-76
2022/02/05 12:41:45;;;;;;;19.95;3.78;;;10.00;99.90;;;;;;4962967;28;20039;-76
2022/02/05 12:44:11;;;;;;;18.95;3.92;;;10.90;99.90;;;;;;4980896;28;20026;-76
2022/02/05 12:47:17;;;;;;;16.35;3.22;;;11.70;99.90;;;;;;4964461;28;20229;-76
2022/02/05 12:49:51;;;;;;;14.55;2.88;;;12.40;99.90;;;;;;4965440;28;20070;-76
2022/02/05 12:52:23;;;;;;;21.05;2.90;;;12.90;99.90;;;;;;4983879;28;20408;-76
2022/02/05 12:54:55;;;;;;;14.75;2.92;;;13.50;99.90;;;;;;4979104;28;20035;-76
2022/02/05 12:57:20;;;;;;;12.65;2.67;;;12.80;94.30;;;;;;4982689;28;20055;-76
2022/02/05 12:59:46;;;;;;;15.18;3.10;;;11.70;99.20;;;;;;4980485;28;20035;-76
2022/02/05 13:02:15;;;;;;;14.68;3.13;;;10.80;99.90;;;;;;4982642;28;20031;-76
2022/02/05 13:04:53;;;;;;;16.15;2.80;;;11.40;99.90;;;;;;4984023;28;20031;-76
2022/02/05 13:07:21;;;;;;;12.43;2.95;;;11.90;99.90;;;;;;4979401;28;20141;-76
2022/02/05 13:09:51;;;;;;;14.15;2.90;;;11.90;99.90;;;;;;4970452;28;20031;-76
2022/02/05 13:12:20;;;;;;;12.55;2.78;;;11.90;99.90;;;;;;4974813;28;20041;-76
2022/02/05 13:15:00;;;;;;;17.75;3.10;;;12.60;99.90;;;;;;4983488;28;20491;-76
2022/02/05 13:17:50;;;;;;;11.93;2.58;;;12.00;97.50;;;;;;4977444;28;20023;-76
2022/02/05 13:29:19;;;;;;;15.27;2.95;;;11.20;99.30;;;;;;4964906;28;20070;-76
2022/02/05 13:34:28;;;;;;;16.70;3.13;;;11.40;99.80;;;;;;4967239;28;20049;-76
2022/02/05 13:37:02;;;;;;;17.13;3.00;;;11.80;99.90;;;;;;4981456;28;20030;-75
2022/02/05 13:42:09;;;;;;;14.45;2.42;;;11.50;99.90;;;;;;4982288;28;20098;-75
2022/02/05 13:44:55;;;;;;;13.77;2.33;;;12.00;97.30;;;;;;4972985;28;20023;-76
2022/02/05 13:47:26;;;;;;;13.95;2.58;;;10.70;97.20;;;;;;4980885;28;20086;-76
2022/02/05 13:49:58;;;;;;;;;;;9.70;99.90;;;;;;4981852;28;20035;-76
2022/02/05 13:52:35;;;;;;;15.45;2.63;;;9.50;99.90;;;;;;4979978;28;19906;-76
2022/02/05 13:55:11;;;;;;;12.75;2.75;;;9.00;99.90;;;;;;4969145;28;20038;-76
2022/02/05 13:57:36;;;;;;;11.55;2.35;;;9.20;99.90;;;;;;4961690;29;20027;-76
2022/02/05 14:00:03;;;;;;;14.82;2.42;;;9.20;99.90;;;;;;4964061;28;20039;-76
2022/02/05 14:02:37;;;;;;;11.95;2.38;;;8.90;99.90;;;;;;4965862;28;20035;-76
2022/02/05 14:05:15;;;;;;;12.88;2.72;;;9.10;99.90;;;;;;4979160;28;20090;-76
2022/02/05 14:07:49;;;;;;;15.38;2.60;;;9.20;99.90;;;;;;4974677;28;20027;-76
2022/02/05 14:10:17;;;;;;;15.48;3.15;;;8.80;99.90;;;;;;4962195;28;20035;-76
2022/02/05 14:12:53;;;;;;;11.25;2.40;;;8.60;99.90;;;;;;4976299;28;20039;-75
2022/02/05 14:15:20;;;;;;;16.48;2.92;;;8.40;99.90;;;;;;4948844;28;20074;-76
2022/02/05 14:17:47;;;;;;;13.10;3.08;;;8.20;99.90;;;;;;4974954;28;21326;-75
2022/02/05 14:20:14;;;;;;;12.40;2.35;;;8.00;99.90;;;;;;4981138;28;20054;-76
2022/02/05 14:22:44;;;;;;;10.73;2.38;;;7.90;99.90;;;;;;4979939;28;20117;-76
2022/02/05 14:25:22;;;;;;;10.57;2.13;;;7.90;99.90;;;;;;4961451;28;20034;-76
2022/02/05 14:28:26;;;;;;;15.68;2.63;;;7.80;99.90;;;;;;4970975;28;20118;-75
2022/02/05 14:42:19;;;;;;;12.52;2.60;;;7.60;99.90;;;;;;4979221;28;20085;-76
2022/02/05 14:44:45;;;;;;;11.15;2.40;;;7.60;99.90;;;;;;4972713;28;20058;-76
2022/02/05 14:47:12;;;;;;;14.18;3.17;;;7.50;99.90;;;;;;4961229;28;20415;-76
2022/02/05 14:49:41;;;;;;;13.00;2.72;;;7.50;99.90;;;;;;4963389;28;20046;-76
2022/02/05 14:52:10;;;;;;;10.93;2.75;;;7.40;99.90;;;;;;4970866;28;20168;-76
2022/02/05 14:54:36;;;;;;;13.65;2.60;;;7.40;99.90;;;;;;4957542;29;20039;-76
2022/02/05 14:57:02;;;;;;;15.52;2.72;;;7.40;99.90;;;;;;4973665;28;20034;-76
2022/02/05 14:59:30;;;;;;;17.33;4.25;;;7.40;99.90;;;;;;4971463;28;20058;-76
2022/02/05 15:01:56;;;;;;;10.50;2.65;;;7.40;99.90;;;;;;4979388;28;20034;-76
2022/02/05 15:04:21;;;;;;;15.35;2.85;;;7.30;99.90;;;;;;4950109;28;20075;-76
2022/02/05 15:06:47;;;;;;;14.52;2.88;;;7.40;99.90;;;;;;4972735;28;20102;-76
2022/02/05 15:09:14;;;;;;;15.95;2.58;;;7.30;99.90;;;;;;4955648;28;20058;-76
2022/02/05 15:11:40;;;;;;;13.85;2.25;;;7.30;99.90;;;;;;4958522;28;20049;-75
2022/02/05 15:14:06;;;;;;;15.95;2.47;;;7.30;99.90;;;;;;4975637;28;20047;-76
2022/02/05 15:16:34;;;;;;;12.90;2.53;;;7.20;99.90;;;;;;4927043;28;20341;-76
2022/02/05 15:19:00;;;;;;;13.93;3.00;;;7.30;99.90;;;;;;4967997;28;20090;-76
2022/02/05 15:21:37;;;;;;;12.45;3.10;;;7.20;99.90;;;;;;4952671;28;20073;-75
2022/02/05 15:24:05;;;;;;;19.65;2.80;;;7.20;99.90;;;;;;4972113;28;20023;-76
2022/02/05 15:26:33;;;;;;;10.23;2.22;;;7.20;99.90;;;;;;4944629;28;20680;-76
2022/02/05 15:28:59;;;;;;;16.00;2.42;;;7.30;99.90;;;;;;4970012;28;20039;-77
2022/02/05 15:31:25;;;;;;;13.75;2.88;;;7.40;99.90;;;;;;4975273;28;20031;-76
2022/02/05 15:33:55;;;;;;;13.27;2.42;;;7.40;99.90;;;;;;4942437;28;20050;-76
2022/02/05 15:36:36;;;;;;;14.48;2.55;;;7.30;99.90;;;;;;4955757;28;20094;-76
2022/02/05 15:44:22;;;;;;;12.27;2.38;;;7.10;99.90;;;;;;4958780;28;20053;-76
2022/02/05 15:46:48;;;;;;;13.48;3.10;;;7.00;99.90;;;;;;4970515;28;20035;-76
2022/02/05 15:49:14;;;;;;;14.05;3.95;;;7.00;99.90;;;;;;4973760;28;20027;-76
2022/02/05 15:51:40;;;;;;;10.38;2.67;;;6.90;99.90;;;;;;4972510;28;20031;-76
2022/02/05 15:54:08;;;;;;;10.52;2.60;;;6.90;99.90;;;;;;4977133;28;20079;-79
2022/02/05 15:59:02;;;;;;;14.88;3.55;;;6.80;99.90;;;;;;4973817;28;20027;-78
2022/02/05 16:01:28;;;;;;;10.27;2.80;;;6.80;99.90;;;;;;4974188;28;20023;-80
2022/02/05 16:03:54;;;;;;;12.48;4.10;;;6.70;99.90;;;;;;4941360;28;20036;-79
2022/02/05 16:06:20;;;;;;;15.57;3.13;;;6.70;99.90;;;;;;4961318;28;20023;-80
2022/02/05 16:08:45;;;;;;;16.02;2.80;;;6.70;99.90;;;;;;4961017;28;20094;-83
2022/02/05 16:11:13;;;;;;;13.45;3.28;;;6.70;99.90;;;;;;4960741;28;20165;-75
2022/02/05 16:13:40;;;;;;;12.73;3.05;;;6.70;99.90;;;;;;4974664;28;20129;-76
2022/02/05 16:16:06;;;;;;;17.90;3.75;;;6.70;99.90;;;;;;4942091;28;20062;-76
2022/02/05 16:18:32;;;;;;;11.70;2.92;;;6.60;99.90;;;;;;4962461;28;20369;-79
2022/02/05 16:20:57;;;;;;;10.52;2.65;;;6.60;99.90;;;;;;4989355;28;20057;-80